Time;durP1;ratioP1;P1;durP2;ratioP2;P2;SDS_P1;SDS_P2;PMS_P1;PMS_P2;Temp;Humidity;BMP_temperature;BMP_pressure;BME280_temperature;BME280_humidity;BME280_pressure;Samples;Min_cycle;Max_cycle;Signal;HPM_P1;HPM_P2
2022/11/30 00:02:15;;;;;;;;;;;;;;;6.17;100.00;102151.38;5020684;28;19913;-61
2022/11/30 00:04:40;;;;;;;;;;;;;;;6.20;100.00;102153.63;5014121;28;20360;-61
2022/11/30 00:07:05;;;;;;;;;;;;;;;6.22;100.00;102150.63;5012530;28;20361;-61
2022/11/30 00:09:31;;;;;;;;;;;;;;;6.23;100.00;102152.31;5013541;28;19917;-60
2022/11/30 00:11:56;;;;;;;;;;;;;;;6.27;100.00;102155.41;5014189;28;20047;-60
2022/11/30 00:14:21;;;;;;;;;;;;;;;6.23;100.00;102149.56;5014602;28;19929;-60
2022/11/30 00:16:46;;;;;;;;;;;;;;;6.21;100.00;102155.28;5014341;28;19936;-60
2022/11/30 00:19:11;;;;;;;;;;;;;;;6.24;100.00;102151.22;5014171;28;19914;-60
2022/11/30 00:21:37;;;;;;;;;;;;;;;6.24;100.00;102148.47;5013915;28;19913;-60
2022/11/30 00:24:03;;;;;;;;;;;;;;;6.23;100.00;102144.88;5014100;28;19913;-58
2022/11/30 00:26:28;;;;;;;;;;;;;;;6.23;100.00;102150.38;5012574;28;19984;-61
2022/11/30 00:28:54;;;;;;;;;;;;;;;6.22;100.00;102156.13;5014056;28;20380;-61
2022/11/30 00:31:19;;;;;;;;;;;;;;;6.23;100.00;102146.81;5013861;28;20000;-61
2022/11/30 00:33:45;;;;;;;;;;;;;;;6.27;100.00;102149.91;5013608;28;20000;-61
2022/11/30 00:36:14;;;;;;;;;;;;;;;6.24;100.00;102145.72;5024867;28;20280;-61
2022/11/30 00:38:40;;;;;;;;;;;;;;;6.20;100.00;102155.53;5033291;28;19966;-60
2022/11/30 00:41:05;;;;;;;;;;;;;;;6.21;100.00;102151.72;5030987;28;20003;-63
2022/11/30 00:43:30;;;;;;;;;;;;;;;6.23;100.00;102144.88;5032605;28;19999;-60
2022/11/30 00:45:56;;;;;;;;;;;;;;;6.23;100.00;102147.63;5032805;28;19913;-61
2022/11/30 00:48:21;;;;;;;;;;;;;;;6.21;100.00;102146.22;5032544;28;19916;-61
2022/11/30 00:50:47;;;;;;;;;;;;;;;6.17;100.00;102145.88;5031339;28;19912;-60
2022/11/30 00:53:12;;;;;;;;;;;;;;;6.16;100.00;102146.09;5032770;28;19913;-60
2022/11/30 00:55:38;;;;;;;;;;;;;;;6.15;100.00;102153.53;5033083;28;19913;-60
2022/11/30 00:58:05;;;;;;;;;;;;;;;6.09;100.00;102146.25;5033104;28;19947;-61
2022/11/30 01:00:30;;;;;;;;;;;;;;;6.08;100.00;102159.16;5032892;28;19933;-60
2022/11/30 01:02:56;;;;;;;;;;;;;;;6.06;100.00;102147.56;5032861;28;19913;-60
2022/11/30 01:05:21;;;;;;;;;;;;;;;6.06;100.00;102152.25;5032804;28;19921;-61
2022/11/30 01:07:47;;;;;;;;;;;;;;;6.08;100.00;102152.84;5032709;28;19920;-60
2022/11/30 01:10:12;;;;;;;;;;;;;;;6.12;100.00;102150.44;5031275;28;20336;-60
2022/11/30 01:12:37;;;;;;;;;;;;;;;6.11;100.00;102154.25;5032604;28;19913;-60
2022/11/30 01:15:03;;;;;;;;;;;;;;;6.08;100.00;102161.91;5032749;28;19917;-60
2022/11/30 01:17:28;;;;;;;;;;;;;;;6.06;100.00;102161.31;5032714;28;19913;-60
2022/11/30 01:19:53;;;;;;;;;;;;;;;6.05;100.00;102158.81;5032486;28;19917;-60
2022/11/30 01:22:18;;;;;;;;;;;;;;;6.04;100.00;102168.97;5031110;28;19913;-60
2022/11/30 01:24:43;;;;;;;;;;;;;;;6.07;100.00;102162.16;5031861;28;20298;-61
2022/11/30 01:27:09;;;;;;;;;;;;;;;6.09;100.00;102171.81;5029724;28;19917;-60
2022/11/30 01:29:34;;;;;;;;;;;;;;;6.08;100.00;102159.16;5031956;28;19913;-60
2022/11/30 01:31:59;;;;;;;;;;;;;;;6.05;100.00;102165.13;5031856;28;19913;-60
2022/11/30 01:34:24;;;;;;;;;;;;;;;6.05;100.00;102167.88;5031724;28;19913;-61
2022/11/30 01:36:50;;;;;;;;;;;;;;;6.04;100.00;102163.47;5031835;28;19924;-61
2022/11/30 01:39:15;;;;;;;;;;;;;;;6.01;100.00;102169.44;5031577;28;19948;-60
2022/11/30 01:41:40;;;;;;;;;;;;;;;6.02;100.00;102173.03;5027858;28;19917;-59
2022/11/30 01:44:05;;;;;;;;;;;;;;;6.01;100.00;102168.59;5030615;28;19920;-60
2022/11/30 01:46:49;;;;;;;;;;;;;;;5.99;100.00;102166.09;5032074;28;19924;-60
2022/11/30 01:49:19;;;;;;;;;;;;;;;5.97;100.00;102162.72;5031685;28;19971;-60
2022/11/30 01:51:50;;;;;;;;;;;;;;;5.97;100.00;102168.22;5031908;28;19932;-60
2022/11/30 01:54:17;;;;;;;;;;;;;;;5.98;100.00;102177.31;5031616;28;19917;-60
2022/11/30 01:56:46;;;;;;;;;;;;;;;5.99;100.00;102170.75;5032050;28;19913;-61
2022/11/30 01:59:11;;;;;;;;;;;;;;;6.01;100.00;102185.09;5032374;28;19913;-61
2022/11/30 02:01:37;;;;;;;;;;;;;;;5.98;100.00;102183.63;5032158;28;19913;-60
2022/11/30 02:04:06;;;;;;;;;;;;;;;5.99;100.00;102179.84;5032326;28;19913;-62
2022/11/30 02:06:31;;;;;;;;;;;;;;;5.99;100.00;102196.31;5032063;28;19913;-61
2022/11/30 02:08:56;;;;;;;;;;;;;;;5.95;100.00;102192.38;5032175;28;19967;-61
2022/11/30 02:11:23;;;;;;;;;;;;;;;5.97;100.00;102189.38;5031904;28;20332;-60
2022/11/30 02:13:51;;;;;;;;;;;;;;;6.01;100.00;102191.44;5031657;28;19920;-61
2022/11/30 02:16:34;;;;;;;;;;;;;;;6.00;100.00;102198.00;5031911;28;20361;-61
2022/11/30 02:19:18;;;;;;;;;;;;;;;5.99;100.00;102189.97;5030387;28;20247;-62
2022/11/30 02:21:43;;;;;;;;;;;;;;;5.97;100.00;102197.63;5031977;28;19913;-62
2022/11/30 02:24:27;;;;;;;;;;;;;;;5.94;100.00;102191.53;5031777;28;19913;-61
2022/11/30 02:27:01;;;;;;;;;;;;;;;5.92;100.00;102193.66;5029989;28;19996;-61
2022/11/30 02:29:37;;;;;;;;;;;;;;;5.96;100.00;102195.94;5031521;28;20407;-61
2022/11/30 02:32:13;;;;;;;;;;;;;;;5.93;100.00;102198.09;5031532;28;19917;-61
2022/11/30 02:34:40;;;;;;;;;;;;;;;5.95;100.00;102200.63;5035023;28;20360;-61
2022/11/30 02:37:06;;;;;;;;;;;;;;;5.96;100.00;102193.19;5035259;28;19920;-61
2022/11/30 02:39:32;;;;;;;;;;;;;;;5.97;100.00;102187.44;5034442;28;19921;-63
2022/11/30 02:41:57;;;;;;;;;;;;;;;5.97;100.00;102184.72;5032927;28;19924;-61
2022/11/30 02:44:22;;;;;;;;;;;;;;;5.97;100.00;102183.88;5034784;28;19917;-61
2022/11/30 02:47:17;;;;;;;;;;;;;;;5.98;100.00;102199.28;5033693;28;19963;-61
2022/11/30 02:49:46;;;;;;;;;;;;;;;5.96;100.00;102193.19;5015975;28;19928;-61
2022/11/30 02:52:13;;;;;;;;;;;;;;;5.94;100.00;102197.03;5034841;28;19920;-61
2022/11/30 02:54:38;;;;;;;;;;;;;;;5.94;100.00;102190.69;5035167;28;19909;-61
2022/11/30 02:57:03;;;;;;;;;;;;;;;5.96;100.00;102196.75;5033461;28;19913;-61
2022/11/30 02:59:28;;;;;;;;;;;;;;;5.98;100.00;102189.13;5034709;28;20388;-61
2022/11/30 03:01:55;;;;;;;;;;;;;;;6.01;100.00;102190.56;5033061;28;20415;-60
2022/11/30 03:04:20;;;;;;;;;;;;;;;6.03;100.00;102193.94;5034659;28;19913;-60
2022/11/30 03:06:45;;;;;;;;;;;;;;;6.05;100.00;102191.78;5034382;28;19919;-61
2022/11/30 03:09:10;;;;;;;;;;;;;;;6.05;100.00;102194.53;5034359;28;20231;-61
2022/11/30 03:11:35;;;;;;;;;;;;;;;6.06;100.00;102196.19;5034551;28;20339;-61
2022/11/30 03:14:02;;;;;;;;;;;;;;;6.08;100.00;102194.88;5024659;28;19978;-61
2022/11/30 03:16:27;;;;;;;;;;;;;;;6.07;100.00;102187.69;5014736;28;19913;-61
2022/11/30 03:18:52;;;;;;;;;;;;;;;6.04;100.00;102201.09;5014658;28;20322;-60
2022/11/30 03:21:18;;;;;;;;;;;;;;;6.01;100.00;102194.19;5013053;28;19929;-61
2022/11/30 03:23:43;;;;;;;;;;;;;;;5.98;100.00;102197.38;5014302;28;19913;-61
2022/11/30 03:26:08;;;;;;;;;;;;;;;5.96;100.00;102202.25;5014868;28;20003;-60
2022/11/30 03:28:35;;;;;;;;;;;;;;;5.95;100.00;102203.38;5014110;28;19918;-61
2022/11/30 03:31:00;;;;;;;;;;;;;;;5.92;100.00;102201.09;5014253;28;19949;-61
2022/11/30 03:33:25;;;;;;;;;;;;;;;5.85;100.00;102192.16;5014183;28;19917;-61
2022/11/30 03:35:59;;;;;;;;;;;;;;;5.91;100.00;102200.25;5014024;28;19963;-62
2022/11/30 03:38:25;;;;;;;;;;;;;;;5.90;100.00;102203.22;5014292;28;19948;-61
2022/11/30 03:40:57;;;;;;;;;;;;;;;5.88;100.00;102199.88;5011566;28;19972;-63
2022/11/30 03:43:22;;;;;;;;;;;;;;;5.87;100.00;102193.56;5013840;28;19956;-60
2022/11/30 03:45:47;;;;;;;;;;;;;;;5.88;100.00;102197.16;5013214;28;20073;-61
2022/11/30 03:48:13;;;;;;;;;;;;;;;5.91;100.00;102199.41;5014022;28;19936;-62
2022/11/30 03:50:38;;;;;;;;;;;;;;;5.90;100.00;102203.22;5013939;28;20436;-61
2022/11/30 03:53:03;;;;;;;;;;;;;;;5.87;100.00;102207.31;5013853;28;20423;-61
2022/11/30 03:55:28;;;;;;;;;;;;;;;5.88;100.00;102213.63;5014131;28;19992;-61
2022/11/30 03:57:53;;;;;;;;;;;;;;;5.89;100.00;102207.91;5014127;28;20263;-61
2022/11/30 04:00:19;;;;;;;;;;;;;;;5.93;100.00;102219.25;5014111;28;19921;-61
2022/11/30 04:02:44;;;;;;;;;;;;;;;5.93;100.00;102211.00;5012514;28;19914;-61
2022/11/30 04:05:09;;;;;;;;;;;;;;;5.91;100.00;102211.22;5013659;28;20004;-61
2022/11/30 04:07:34;;;;;;;;;;;;;;;5.90;100.00;102212.31;5013833;28;20376;-61
2022/11/30 04:09:59;;;;;;;;;;;;;;;5.88;100.00;102208.97;5013816;28;19914;-60
2022/11/30 04:12:25;;;;;;;;;;;;;;;5.88;100.00;102211.72;5013690;28;19920;-60
2022/11/30 04:14:50;;;;;;;;;;;;;;;5.89;100.00;102213.41;5013415;28;19914;-61
2022/11/30 04:17:15;;;;;;;;;;;;;;;5.89;100.00;102212.56;5013519;28;19972;-61
2022/11/30 04:19:40;;;;;;;;;;;;;;;5.88;100.00;102208.13;5013585;28;19917;-61
2022/11/30 04:22:05;;;;;;;;;;;;;;;5.87;100.00;102221.03;5013369;28;19913;-61
2022/11/30 04:24:30;;;;;;;;;;;;;;;5.85;100.00;102209.44;5013420;28;20411;-61
2022/11/30 04:26:56;;;;;;;;;;;;;;;5.85;100.00;102214.94;5013451;28;20331;-61
2022/11/30 04:29:21;;;;;;;;;;;;;;;5.86;100.00;102213.88;5013496;28;19928;-61
2022/11/30 04:31:46;;;;;;;;;;;;;;;5.83;100.00;102217.09;5013306;28;20364;-61
2022/11/30 04:34:11;;;;;;;;;;;;;;;5.82;100.00;102212.66;5013172;28;19917;-61
2022/11/30 04:36:36;;;;;;;;;;;;;;;5.81;100.00;102215.66;5012880;28;20292;-61
2022/11/30 04:39:02;;;;;;;;;;;;;;;5.81;100.00;102211.00;5013070;28;19980;-61
2022/11/30 04:41:27;;;;;;;;;;;;;;;5.83;100.00;102217.09;5010768;28;19948;-60
2022/11/30 04:43:52;;;;;;;;;;;;;;;5.82;100.00;102214.59;5013252;28;19936;-61
2022/11/30 04:46:17;;;;;;;;;;;;;;;5.81;100.00;102210.19;5013355;28;19913;-60
2022/11/30 04:48:43;;;;;;;;;;;;;;;5.78;100.00;102208.75;5013166;28;19913;-61
2022/11/30 04:51:08;;;;;;;;;;;;;;;5.75;100.00;102212.81;5013063;28;20357;-61
2022/11/30 04:53:34;;;;;;;;;;;;;;;5.74;100.00;102215.78;5013115;28;19917;-61
2022/11/30 04:56:09;;;;;;;;;;;;;;;5.71;100.00;102213.53;5012648;28;19945;-60
2022/11/30 04:58:34;;;;;;;;;;;;;;;5.70;100.00;102215.44;5012829;28;19913;-61
2022/11/30 05:00:59;;;;;;;;;;;;;;;5.69;100.00;102216.50;5012737;28;19913;-58
2022/11/30 05:03:25;;;;;;;;;;;;;;;5.68;100.00;102222.25;5012829;28;20240;-60
2022/11/30 05:05:50;;;;;;;;;;;;;;;5.69;100.00;102218.44;5012881;28;20274;-60
2022/11/30 05:08:15;;;;;;;;;;;;;;;5.70;100.00;102215.44;5012424;28;19967;-60
2022/11/30 05:10:41;;;;;;;;;;;;;;;5.68;100.00;102214.00;5012466;28;19917;-60
2022/11/30 05:13:06;;;;;;;;;;;;;;;5.65;100.00;102215.34;5012177;28;19913;-59
2022/11/30 05:15:31;;;;;;;;;;;;;;;5.65;100.00;102228.19;5012334;28;20344;-59
2022/11/30 05:17:57;;;;;;;;;;;;;;;5.63;100.00;102215.53;5011774;28;19918;-60
2022/11/30 05:20:22;;;;;;;;;;;;;;;5.64;100.00;102221.88;5012016;28;19923;-60
2022/11/30 05:22:48;;;;;;;;;;;;;;;5.64;100.00;102221.88;5011924;28;19917;-60
2022/11/30 05:25:13;;;;;;;;;;;;;;;5.62;100.00;102221.28;5011902;28;20337;-60
2022/11/30 05:27:38;;;;;;;;;;;;;;;5.60;100.00;102220.69;5011819;28;19964;-59
2022/11/30 05:30:04;;;;;;;;;;;;;;;5.60;100.00;102223.44;5011744;28;19913;-60
2022/11/30 05:32:29;;;;;;;;;;;;;;;5.60;100.00;102229.78;5011807;28;19919;-60
2022/11/30 05:34:54;;;;;;;;;;;;;;;5.60;100.00;102235.25;5026248;28;20326;-60
2022/11/30 05:37:19;;;;;;;;;;;;;;;5.62;100.00;102226.78;5006792;28;19914;-59
2022/11/30 05:39:45;;;;;;;;;;;;;;;5.60;100.00;102240.75;5011172;28;20016;-59
2022/11/30 05:42:10;;;;;;;;;;;;;;;5.58;100.00;102233.81;5011079;28;20030;-60
2022/11/30 05:44:35;;;;;;;;;;;;;;;5.58;100.00;102228.31;5010818;28;19921;-60
2022/11/30 05:47:01;;;;;;;;;;;;;;;5.60;100.00;102238.00;5010714;28;19913;-59
2022/11/30 05:49:26;;;;;;;;;;;;;;;5.58;100.00;102240.16;5010769;28;19918;-60
2022/11/30 05:51:51;;;;;;;;;;;;;;;5.57;100.00;102248.63;5011230;28;20384;-60
2022/11/30 05:54:16;;;;;;;;;;;;;;;5.57;100.00;102248.63;5010647;28;20387;-60
2022/11/30 05:56:41;;;;;;;;;;;;;;;5.55;100.00;102237.03;5011087;28;19932;-61
2022/11/30 05:59:08;;;;;;;;;;;;;;;5.55;100.00;102245.28;5011348;28;19917;-60
2022/11/30 06:01:33;;;;;;;;;;;;;;;5.53;100.00;102240.00;5011413;28;19918;-59
2022/11/30 06:03:58;;;;;;;;;;;;;;;5.53;100.00;102244.69;5011063;28;20040;-60
2022/11/30 06:06:23;;;;;;;;;;;;;;;5.55;100.00;102250.78;5009225;28;20349;-59
2022/11/30 06:08:49;;;;;;;;;;;;;;;5.54;100.00;102240.88;5012751;28;19913;-60
2022/11/30 06:11:14;;;;;;;;;;;;;;;5.55;100.00;102248.03;5014441;28;20299;-60
2022/11/30 06:13:40;;;;;;;;;;;;;;;5.53;100.00;102251.00;5014457;28;19918;-60
2022/11/30 06:16:05;;;;;;;;;;;;;;;5.52;100.00;102246.59;5014588;28;19917;-60
2022/11/30 06:18:31;;;;;;;;;;;;;;;5.54;100.00;102243.59;5014486;28;19917;-60
2022/11/30 06:21:01;;;;;;;;;;;;;;;5.55;100.00;102250.78;5029604;28;20237;-60
2022/11/30 06:23:26;;;;;;;;;;;;;;;5.58;100.00;102253.03;5014648;28;19921;-60
2022/11/30 06:25:51;;;;;;;;;;;;;;;5.58;100.00;102256.63;5014282;28;19917;-61
2022/11/30 06:28:16;;;;;;;;;;;;;;;5.57;100.00;102257.69;5014000;28;19929;-60
2022/11/30 06:30:41;;;;;;;;;;;;;;;5.59;100.00;102257.44;5013853;28;19922;-61
2022/11/30 06:33:07;;;;;;;;;;;;;;;5.59;100.00;102257.44;5012904;28;20293;-61
2022/11/30 06:35:32;;;;;;;;;;;;;;;5.56;100.00;102255.19;5014756;28;19929;-61
2022/11/30 06:37:59;;;;;;;;;;;;;;;5.55;100.00;102259.00;5014483;28;20376;-62
2022/11/30 06:40:24;;;;;;;;;;;;;;;5.53;100.00;102258.41;5014588;28;19914;-62
2022/11/30 06:42:49;;;;;;;;;;;;;;;5.48;100.00;102261.88;5014268;28;19914;-61
2022/11/30 06:45:15;;;;;;;;;;;;;;;5.43;100.00;102256.25;5014224;28;19932;-62
2022/11/30 06:47:40;;;;;;;;;;;;;;;5.38;100.00;102267.94;5013281;28;19940;-60
2022/11/30 06:50:07;;;;;;;;;;;;;;;5.33;100.00;102266.97;5014325;28;20364;-62
2022/11/30 06:52:32;;;;;;;;;;;;;;;5.27;100.00;102272.31;5014545;28;19913;-61
2022/11/30 06:54:57;;;;;;;;;;;;;;;5.23;100.00;102270.28;5014334;28;19917;-62
2022/11/30 06:57:28;;;;;;;;;;;;;;;5.19;100.00;102267.19;5014218;28;20016;-62
2022/11/30 06:59:54;;;;;;;;;;;;;;;5.15;100.00;102276.94;5014277;28;19968;-62
2022/11/30 07:02:19;;;;;;;;;;;;;;;5.11;100.00;102276.56;5013179;28;19922;-63
2022/11/30 07:04:44;;;;;;;;;;;;;;;5.08;100.00;102276.19;5015314;28;19923;-60
2022/11/30 07:07:09;;;;;;;;;;;;;;;5.05;100.00;102273.94;5029900;28;19920;-61
2022/11/30 07:09:35;;;;;;;;;;;;;;;5.01;100.00;102273.56;5014832;28;19914;-63
2022/11/30 07:12:00;;;;;;;;;;;;;;;4.98;100.00;102280.34;5013342;28;20345;-61
2022/11/30 07:14:25;;;;;;;;;;;;;;;4.96;100.00;102279.75;5014932;28;19913;-62
2022/11/30 07:16:51;;;;;;;;;;;;;;;4.95;100.00;102278.09;5014899;28;19992;-60
2022/11/30 07:19:16;;;;;;;;;;;;;;;4.94;100.00;102289.28;5013804;28;20013;-61
2022/11/30 07:21:41;;;;;;;;;;;;;;;4.93;100.00;102299.41;5015113;28;19917;-62
2022/11/30 07:26:50;;;;;;;;;;;;;;;4.93;100.00;102301.31;5014770;28;19925;-60
2022/11/30 07:29:16;;;;;;;;;;;;;;;4.93;100.00;102306.78;5013361;28;20296;-59
2022/11/30 07:31:41;;;;;;;;;;;;;;;4.93;100.00;102301.31;5012766;28;19924;-60
2022/11/30 07:34:08;;;;;;;;;;;;;;;4.94;100.00;102308.47;5013302;28;20003;-61
2022/11/30 07:36:33;;;;;;;;;;;;;;;4.92;100.00;102314.19;5009820;28;19922;-60
2022/11/30 07:38:59;;;;;;;;;;;;;;;4.94;100.00;102319.44;4990785;28;19968;-60
2022/11/30 07:41:24;;;;;;;;;;;;;;;4.95;100.00;102312.88;4993234;28;19925;-60
2022/11/30 07:43:49;;;;;;;;;;;;;;;4.97;100.00;102321.72;5011036;28;19917;-60
2022/11/30 07:46:15;;;;;;;;;;;;;;;5.01;100.00;102314.69;5012329;28;20033;-60
2022/11/30 07:48:41;;;;;;;;;;;;;;;5.06;100.00;102320.34;5012036;28;20284;-58
2022/11/30 07:51:09;;;;;;;;;;;;;;;5.09;100.00;102314.41;5011774;28;19924;-59
2022/11/30 07:53:34;;;;;;;;;;;;;;;5.14;100.00;102316.44;5010065;28;20124;-60
2022/11/30 07:56:07;;;;;;;;;;;;;;;5.17;100.00;102321.44;5011313;28;19929;-60
2022/11/30 07:58:32;;;;;;;;;;;;;;;5.23;100.00;102330.66;5011849;28;20338;-60
2022/11/30 08:01:02;;;;;;;;;;;;;;;5.28;100.00;102320.66;5011471;28;19968;-60
2022/11/30 08:03:27;;;;;;;;;;;;;;;5.38;100.00;102327.47;5011609;28;19975;-60
2022/11/30 08:05:52;;;;;;;;;;;;;;;5.40;100.00;102320.66;5011395;28;20380;-60
2022/11/30 08:08:17;;;;;;;;;;;;;;;5.44;100.00;102334.75;5011478;28;20115;-60
2022/11/30 08:10:42;;;;;;;;;;;;;;;5.45;100.00;102334.53;5026889;28;19918;-60
2022/11/30 08:13:07;;;;;;;;;;;;;;;5.45;100.00;102334.53;5011682;28;20369;-60
2022/11/30 08:15:33;;;;;;;;;;;;;;;5.46;100.00;102341.72;5011627;28;20051;-59
2022/11/30 08:18:03;;;;;;;;;;;;;;;5.51;100.00;102338.25;5010836;28;19917;-59
2022/11/30 08:20:29;;;;;;;;;;;;;;;5.53;100.00;102338.84;5011335;28;19925;-60
2022/11/30 08:22:54;;;;;;;;;;;;;;;5.55;100.00;102344.13;5011424;28;19920;-59
2022/11/30 08:25:19;;;;;;;;;;;;;;;5.56;100.00;102343.03;5011036;28;20277;-59
2022/11/30 08:27:44;;;;;;;;;;;;;;;5.57;100.00;102341.97;5010707;28;19919;-60
2022/11/30 08:30:09;;;;;;;;;;;;;;;5.58;100.00;102338.13;5025712;28;19961;-60
2022/11/30 08:32:37;;;;;;;;;;;;;;;5.62;100.00;102347.59;5011249;28;20023;-59
2022/11/30 08:35:03;;;;;;;;;;;;;;;5.57;100.00;102356.53;5026089;28;19921;-59
2022/11/30 08:37:28;;;;;;;;;;;;;;;5.59;100.00;102359.03;5011411;28;19924;-61
2022/11/30 08:39:53;;;;;;;;;;;;;;;5.59;100.00;102359.88;5011481;28;19951;-59
2022/11/30 08:42:18;;;;;;;;;;;;;;;5.54;100.00;102362.47;5011762;28;19921;-59
2022/11/30 08:44:43;;;;;;;;;;;;;;;5.52;100.00;102361.91;5011132;28;19971;-60
2022/11/30 08:47:09;;;;;;;;;;;;;;;5.55;100.00;102366.06;5011383;28;19924;-60
2022/11/30 08:49:34;;;;;;;;;;;;;;;5.54;100.00;102367.16;5011262;28;20374;-59
2022/11/30 08:51:59;;;;;;;;;;;;;;;5.54;100.00;102364.41;5011116;28;19917;-59
2022/11/30 08:54:26;;;;;;;;;;;;;;;5.55;100.00;102366.91;5008205;28;19949;-59
2022/11/30 08:56:51;;;;;;;;;;;;;;;5.54;100.00;102370.72;5009491;28;20401;-60
2022/11/30 08:59:16;;;;;;;;;;;;;;;5.54;100.00;102364.41;5011138;28;20009;-59
2022/11/30 09:01:41;;;;;;;;;;;;;;;5.56;100.00;102373.25;5011094;28;19921;-59
2022/11/30 09:04:07;;;;;;;;;;;;;;;5.60;100.00;102377.19;5026020;28;20020;-59
2022/11/30 09:06:32;;;;;;;;;;;;;;;5.64;100.00;102375.66;5010758;28;19921;-60
2022/11/30 09:08:57;;;;;;;;;;;;;;;5.68;100.00;102376.84;5025799;28;19972;-59
2022/11/30 09:11:28;;;;;;;;;;;;;;;5.71;100.00;102376.38;5026262;28;20007;-59
2022/11/30 09:13:54;;;;;;;;;;;;;;;5.77;100.00;102378.16;5010955;28;19928;-59
2022/11/30 09:16:20;;;;;;;;;;;;;;;5.84;100.00;102374.50;5010634;28;19917;-59
2022/11/30 09:18:49;;;;;;;;;;;;;;;5.89;100.00;102380.09;5010479;28;19913;-59
2022/11/30 09:21:15;;;;;;;;;;;;;;;5.96;100.00;102389.06;5010382;28;19921;-59
2022/11/30 09:23:41;;;;;;;;;;;;;;;6.03;100.00;102392.59;4998279;28;19914;-59
2022/11/30 09:26:08;;;;;;;;;;;;;;;6.09;100.00;102391.63;4993073;28;19913;-60
2022/11/30 09:28:34;;;;;;;;;;;;;;;6.11;100.00;102394.13;4993151;28;20008;-61
2022/11/30 09:31:01;;;;;;;;;;;;;;;6.07;100.00;102404.75;4993311;28;19921;-59
2022/11/30 09:33:26;;;;;;;;;;;;;;;6.10;100.00;102392.44;4993271;28;19914;-59
2022/11/30 09:35:58;;;;;;;;;;;;;;;6.11;100.00;102391.38;4993573;28;19995;-60
2022/11/30 09:38:24;;;;;;;;;;;;;;;6.18;100.00;102394.88;4993251;28;19925;-61
2022/11/30 09:40:59;;;;;;;;;;;;;;;6.19;100.00;102391.03;4993079;28;20375;-60
2022/11/30 09:43:29;;;;;;;;;;;;;;;6.24;100.00;102390.31;4992400;28;19960;-60
2022/11/30 09:46:00;;;;;;;;;;;;;;;6.31;100.00;102385.53;4992902;28;19940;-60
2022/11/30 09:48:37;;;;;;;;;;;;;;;6.37;100.00;102387.31;4992961;28;19920;-59
2022/11/30 09:51:16;;;;;;;;;;;;;;;6.42;100.00;102381.09;4992633;28;19914;-60
2022/11/30 09:53:48;;;;;;;;;;;;;;;6.45;100.00;102380.63;4991375;28;19975;-60
2022/11/30 09:56:24;;;;;;;;;;;;;;;6.50;100.00;102378.00;4993706;28;19918;-65
2022/11/30 09:59:13;;;;;;;;;;;;;;;6.53;100.00;102380.25;4992975;28;19925;-59
2022/11/30 10:01:38;;;;;;;;;;;;;;;6.58;100.00;102379.53;4985084;28;19936;-60
2022/11/30 10:04:03;;;;;;;;;;;;;;;6.58;100.00;102381.44;4993076;28;20365;-60
2022/11/30 10:06:47;;;;;;;;;;;;;;;6.63;100.00;102379.63;4993125;28;19914;-59
2022/11/30 10:09:21;;;;;;;;;;;;;;;6.66;100.00;102370.09;4993082;28;20433;-59
2022/11/30 10:11:52;;;;;;;;;;;;;;;6.65;100.00;102383.00;4993037;28;20360;-61
2022/11/30 10:14:32;;;;;;;;;;;;;;;6.70;100.00;102376.75;4992946;28;19976;-60
2022/11/30 10:17:06;;;;;;;;;;;;;;;6.75;100.00;102382.38;4993091;28;19956;-60
2022/11/30 10:19:50;;;;;;;;;;;;;;;6.73;100.00;102381.78;4992609;28;20420;-61
2022/11/30 10:22:21;;;;;;;;;;;;;;;6.74;100.00;102379.84;4992536;28;19914;-60
2022/11/30 10:24:46;;;;;;;;;;;;;;;6.71;100.00;102384.75;4992396;28;20000;-60
2022/11/30 10:27:15;;;;;;;;;;;;;;;6.70;100.00;102377.63;4992456;28;19968;-60
2022/11/30 10:29:41;;;;;;;;;;;;;;;6.67;100.00;102372.59;4992575;28;19937;-60
2022/11/30 10:32:33;;;;;;;;;;;;;;;6.64;100.00;102381.31;4992969;28;19914;-58
2022/11/30 10:35:02;;;;;;;;;;;;;;;6.68;100.00;102378.91;4989673;28;19939;-60
2022/11/30 10:37:38;;;;;;;;;;;;;;;6.72;100.00;102380.13;4992835;28;19914;-59
2022/11/30 10:40:08;;;;;;;;;;;;;;;6.72;100.00;102374.63;4993049;28;20384;-60
2022/11/30 10:42:38;;;;;;;;;;;;;;;6.74;100.00;102380.72;4992536;28;19989;-59
2022/11/30 10:45:05;;;;;;;;;;;;;;;6.69;100.00;102380.59;4992710;28;19922;-59
2022/11/30 10:47:35;;;;;;;;;;;;;;;6.75;100.00;102381.53;4991234;28;19968;-60
2022/11/30 10:50:02;;;;;;;;;;;;;;;6.75;100.00;102373.28;4991562;28;19933;-60
2022/11/30 10:52:29;;;;;;;;;;;;;;;6.81;100.00;102367.66;4991520;28;19931;-60
2022/11/30 10:54:55;;;;;;;;;;;;;;;6.85;100.00;102373.50;4993779;28;19913;-59
2022/11/30 10:57:22;;;;;;;;;;;;;;;6.94;100.00;102369.28;4995039;28;20215;-59
2022/11/30 10:59:55;;;;;;;;;;;;;;;7.00;100.00;102368.31;4994931;28;19924;-60
2022/11/30 11:02:30;;;;;;;;;;;;;;;6.96;100.00;102361.63;4995011;28;20658;-59
2022/11/30 11:05:14;;;;;;;;;;;;;;;7.01;100.00;102361.72;4995027;28;19918;-59
2022/11/30 11:08:03;;;;;;;;;;;;;;;7.01;100.00;102358.16;5009779;28;19914;-60
2022/11/30 11:10:43;;;;;;;;;;;;;;;7.00;100.00;102370.22;4991883;28;19924;-59
2022/11/30 11:13:16;;;;;;;;;;;;;;;6.92;100.00;102378.88;4996082;28;20262;-60
2022/11/30 11:15:54;;;;;;;;;;;;;;;6.94;100.00;102369.28;5005067;28;19925;-60
2022/11/30 11:18:24;;;;;;;;;;;;;;;6.92;100.00;102365.94;4993864;28;19918;-60
2022/11/30 11:21:05;;;;;;;;;;;;;;;7.08;100.00;102377.28;4994528;28;19948;-60
2022/11/30 11:23:33;;;;;;;;;;;;;;;7.05;100.00;102364.81;5009278;28;19921;-60
2022/11/30 11:25:58;;;;;;;;;;;;;;;7.00;100.00;102364.72;4994288;28;19914;-60
2022/11/30 11:28:24;;;;;;;;;;;;;;;7.02;100.00;102368.06;4993860;28;19928;-60
2022/11/30 11:30:51;;;;;;;;;;;;;;;6.91;100.00;102367.00;4994144;28;19917;-60
2022/11/30 11:33:18;;;;;;;;;;;;;;;6.80;100.00;102367.91;4993915;28;19918;-61
2022/11/30 11:35:45;;;;;;;;;;;;;;;6.75;100.00;102360.38;4993782;28;19933;-59
2022/11/30 11:38:24;;;;;;;;;;;;;;;6.73;100.00;102365.28;4993773;28;20286;-59
2022/11/30 11:40:53;;;;;;;;;;;;;;;6.65;100.00;102361.00;4992499;28;19914;-60
2022/11/30 11:43:19;;;;;;;;;;;;;;;6.66;100.00;102361.84;4993875;28;20012;-61
2022/11/30 11:45:49;;;;;;;;;;;;;;;6.62;100.00;102364.22;4993802;28;20049;-61
2022/11/30 11:48:29;;;;;;;;;;;;;;;6.62;100.00;102357.88;4993949;28;20452;-59
2022/11/30 11:51:12;;;;;;;;;;;;;;;6.77;100.00;102357.38;4993589;28;19914;-60
2022/11/30 11:53:47;;;;;;;;;;;;;;;6.69;100.00;102369.59;4993555;28;19918;-61
2022/11/30 11:56:17;;;;;;;;;;;;;;;6.71;100.00;102367.44;4993228;28;20289;-60
2022/11/30 11:58:42;;;;;;;;;;;;;;;6.76;100.00;102372.22;4993257;28;20297;-58
2022/11/30 12:01:10;;;;;;;;;;;;;;;6.71;100.00;102370.19;4993167;28;20456;-61
2022/11/30 12:03:55;;;;;;;;;;;;;;;6.75;100.00;102365.88;4993266;28;19923;-60
2022/11/30 12:06:21;;;;;;;;;;;;;;;6.78;100.00;102361.81;4992524;28;20392;-60
2022/11/30 12:08:51;;;;;;;;;;;;;;;6.78;100.00;102365.38;4993721;28;20376;-60
2022/11/30 12:11:19;;;;;;;;;;;;;;;6.72;100.00;102361.69;4993650;28;19918;-59
2022/11/30 12:13:46;;;;;;;;;;;;;;;6.77;100.00;102358.19;4993749;28;20284;-60
2022/11/30 12:16:13;;;;;;;;;;;;;;;6.86;100.00;102355.91;4992372;28;19918;-60
2022/11/30 12:18:41;;;;;;;;;;;;;;;6.91;100.00;102363.44;4993360;28;20257;-60
2022/11/30 12:21:06;;;;;;;;;;;;;;;6.99;100.00;102358.38;4992961;28;19937;-61
2022/11/30 12:23:31;;;;;;;;;;;;;;;6.94;100.00;102360.22;4993053;28;20385;-60
2022/11/30 12:25:59;;;;;;;;;;;;;;;6.89;100.00;102357.34;4989568;28;19932;-60
2022/11/30 12:28:36;;;;;;;;;;;;;;;6.83;100.00;102360.00;4992029;28;19943;-60
2022/11/30 12:31:28;;;;;;;;;;;;;;;6.85;100.00;102351.50;4992817;28;19914;-61
2022/11/30 12:33:56;;;;;;;;;;;;;;;6.85;100.00;102357.00;4992167;28;19918;-60
2022/11/30 12:36:28;;;;;;;;;;;;;;;6.93;100.00;102359.34;4991773;28;20000;-61
2022/11/30 12:38:57;;;;;;;;;;;;;;;6.93;100.00;102364.88;4991932;28;20020;-61
2022/11/30 12:41:28;;;;;;;;;;;;;;;7.05;100.00;102361.25;4991597;28;19913;-59